sensor_id;sensor_type;location;lat;lon;timestamp;P1;durP1;ratioP1;P2;durP2;ratioP2
36189;SDS011;22232;50.914;13.858;2023-04-08T00:00:52;32.22;;;18.15;;
36189;SDS011;22232;50.914;13.858;2023-04-08T00:03:19;29.63;;;17.02;;
36189;SDS011;22232;50.914;13.858;2023-04-08T00:05:48;30.25;;;17.33;;
36189;SDS011;22232;50.914;13.858;2023-04-08T00:08:16;30.00;;;17.35;;
36189;SDS011;22232;50.914;13.858;2023-04-08T00:10:43;29.67;;;17.25;;
36189;SDS011;22232;50.914;13.858;2023-04-08T00:13:10;31.35;;;17.33;;
36189;SDS011;22232;50.914;13.858;2023-04-08T00:15:39;32.05;;;17.40;;
36189;SDS011;22232;50.914;13.858;2023-04-08T00:18:07;30.20;;;16.25;;
36189;SDS011;22232;50.914;13.858;2023-04-08T00:20:35;29.40;;;17.27;;
36189;SDS011;22232;50.914;13.858;2023-04-08T00:23:02;29.58;;;16.80;;
36189;SDS011;22232;50.914;13.858;2023-04-08T00:25:30;29.67;;;17.58;;
36189;SDS011;22232;50.914;13.858;2023-04-08T00:27:57;28.95;;;17.38;;
36189;SDS011;22232;50.914;13.858;2023-04-08T00:30:25;30.70;;;17.45;;
36189;SDS011;22232;50.914;13.858;2023-04-08T00:32:56;33.47;;;18.40;;
36189;SDS011;22232;50.914;13.858;2023-04-08T00:35:23;34.92;;;17.80;;
36189;SDS011;22232;50.914;13.858;2023-04-08T00:37:51;27.77;;;17.45;;
36189;SDS011;22232;50.914;13.858;2023-04-08T00:40:19;32.08;;;17.38;;
36189;SDS011;22232;50.914;13.858;2023-04-08T00:42:47;30.15;;;16.65;;
36189;SDS011;22232;50.914;13.858;2023-04-08T00:45:14;27.65;;;16.90;;
36189;SDS011;22232;50.914;13.858;2023-04-08T00:47:42;30.38;;;17.45;;
36189;SDS011;22232;50.914;13.858;2023-04-08T00:50:10;27.58;;;15.55;;
36189;SDS011;22232;50.914;13.858;2023-04-08T00:52:37;27.88;;;15.77;;
36189;SDS011;22232;50.914;13.858;2023-04-08T00:55:05;28.52;;;15.48;;
36189;SDS011;22232;50.914;13.858;2023-04-08T00:57:33;30.02;;;16.05;;
36189;SDS011;22232;50.914;13.858;2023-04-08T01:00:02;29.13;;;15.93;;
36189;SDS011;22232;50.914;13.858;2023-04-08T01:02:38;27.65;;;16.25;;
36189;SDS011;22232;50.914;13.858;2023-04-08T01:05:13;30.02;;;16.42;;
36189;SDS011;22232;50.914;13.858;2023-04-08T01:07:48;27.27;;;16.40;;
36189;SDS011;22232;50.914;13.858;2023-04-08T01:10:20;34.20;;;17.95;;
36189;SDS011;22232;50.914;13.858;2023-04-08T01:12:59;29.17;;;16.35;;
36189;SDS011;22232;50.914;13.858;2023-04-08T01:15:30;27.38;;;15.30;;
36189;SDS011;22232;50.914;13.858;2023-04-08T01:18:04;30.15;;;17.15;;
36189;SDS011;22232;50.914;13.858;2023-04-08T01:20:34;28.52;;;16.63;;
36189;SDS011;22232;50.914;13.858;2023-04-08T01:23:04;28.45;;;15.63;;
36189;SDS011;22232;50.914;13.858;2023-04-08T01:25:54;30.33;;;16.92;;
36189;SDS011;22232;50.914;13.858;2023-04-08T01:28:24;25.65;;;14.77;;
36189;SDS011;22232;50.914;13.858;2023-04-08T01:30:57;28.65;;;15.45;;
36189;SDS011;22232;50.914;13.858;2023-04-08T01:33:26;27.60;;;14.43;;
36189;SDS011;22232;50.914;13.858;2023-04-08T01:35:55;26.38;;;15.00;;
36189;SDS011;22232;50.914;13.858;2023-04-08T01:38:25;29.58;;;14.80;;
36189;SDS011;22232;50.914;13.858;2023-04-08T01:40:54;33.40;;;15.57;;
36189;SDS011;22232;50.914;13.858;2023-04-08T01:43:23;27.15;;;14.40;;
36189;SDS011;22232;50.914;13.858;2023-04-08T01:45:51;29.92;;;13.98;;
36189;SDS011;22232;50.914;13.858;2023-04-08T01:48:24;27.98;;;13.90;;
36189;SDS011;22232;50.914;13.858;2023-04-08T01:50:55;28.60;;;13.93;;
36189;SDS011;22232;50.914;13.858;2023-04-08T01:53:23;36.20;;;16.20;;
36189;SDS011;22232;50.914;13.858;2023-04-08T01:55:56;31.25;;;15.60;;
36189;SDS011;22232;50.914;13.858;2023-04-08T01:58:30;33.40;;;15.70;;
36189;SDS011;22232;50.914;13.858;2023-04-08T02:01:13;31.52;;;15.40;;
36189;SDS011;22232;50.914;13.858;2023-04-08T02:03:44;34.38;;;15.80;;
36189;SDS011;22232;50.914;13.858;2023-04-08T02:06:13;29.25;;;15.05;;
36189;SDS011;22232;50.914;13.858;2023-04-08T02:08:41;30.65;;;14.50;;
36189;SDS011;22232;50.914;13.858;2023-04-08T02:11:08;27.50;;;13.75;;
36189;SDS011;22232;50.914;13.858;2023-04-08T02:13:36;33.95;;;14.38;;
36189;SDS011;22232;50.914;13.858;2023-04-08T02:19:10;34.53;;;13.80;;
36189;SDS011;22232;50.914;13.858;2023-04-08T02:21:46;28.88;;;12.55;;
36189;SDS011;22232;50.914;13.858;2023-04-08T02:24:18;27.45;;;12.85;;
36189;SDS011;22232;50.914;13.858;2023-04-08T02:26:48;31.88;;;13.32;;
36189;SDS011;22232;50.914;13.858;2023-04-08T02:29:20;27.65;;;12.88;;
36189;SDS011;22232;50.914;13.858;2023-04-08T02:31:50;27.17;;;12.35;;
36189;SDS011;22232;50.914;13.858;2023-04-08T02:34:19;25.70;;;11.60;;
36189;SDS011;22232;50.914;13.858;2023-04-08T02:36:48;25.60;;;11.18;;
36189;SDS011;22232;50.914;13.858;2023-04-08T02:39:17;26.95;;;11.77;;
36189;SDS011;22232;50.914;13.858;2023-04-08T02:41:47;28.27;;;12.00;;
36189;SDS011;22232;50.914;13.858;2023-04-08T02:44:15;23.40;;;10.80;;
36189;SDS011;22232;50.914;13.858;2023-04-08T02:46:42;20.73;;;10.77;;
36189;SDS011;22232;50.914;13.858;2023-04-08T02:49:10;21.73;;;10.45;;
36189;SDS011;22232;50.914;13.858;2023-04-08T02:51:37;22.23;;;9.55;;
36189;SDS011;22232;50.914;13.858;2023-04-08T02:54:05;22.55;;;10.27;;
36189;SDS011;22232;50.914;13.858;2023-04-08T02:56:33;22.00;;;9.63;;
36189;SDS011;22232;50.914;13.858;2023-04-08T02:59:00;19.30;;;8.98;;
36189;SDS011;22232;50.914;13.858;2023-04-08T03:01:28;22.90;;;9.32;;
36189;SDS011;22232;50.914;13.858;2023-04-08T03:03:57;20.00;;;9.60;;
36189;SDS011;22232;50.914;13.858;2023-04-08T03:06:24;20.20;;;9.27;;
36189;SDS011;22232;50.914;13.858;2023-04-08T03:08:52;19.63;;;9.32;;
36189;SDS011;22232;50.914;13.858;2023-04-08T03:11:20;16.75;;;8.60;;
36189;SDS011;22232;50.914;13.858;2023-04-08T03:13:48;18.95;;;8.95;;
36189;SDS011;22232;50.914;13.858;2023-04-08T03:16:15;18.23;;;8.57;;
36189;SDS011;22232;50.914;13.858;2023-04-08T03:18:43;18.50;;;7.95;;
36189;SDS011;22232;50.914;13.858;2023-04-08T03:21:10;17.50;;;8.10;;
36189;SDS011;22232;50.914;13.858;2023-04-08T03:23:38;16.95;;;7.32;;
36189;SDS011;22232;50.914;13.858;2023-04-08T03:26:05;15.18;;;6.95;;
36189;SDS011;22232;50.914;13.858;2023-04-08T03:28:33;16.55;;;7.68;;
36189;SDS011;22232;50.914;13.858;2023-04-08T03:31:02;15.65;;;7.18;;
36189;SDS011;22232;50.914;13.858;2023-04-08T03:33:30;14.02;;;7.22;;
36189;SDS011;22232;50.914;13.858;2023-04-08T03:35:58;14.68;;;6.90;;
36189;SDS011;22232;50.914;13.858;2023-04-08T03:38:25;13.75;;;6.28;;
36189;SDS011;22232;50.914;13.858;2023-04-08T03:40:53;12.77;;;5.82;;
36189;SDS011;22232;50.914;13.858;2023-04-08T03:43:20;11.85;;;6.00;;
36189;SDS011;22232;50.914;13.858;2023-04-08T03:45:48;11.07;;;5.75;;
36189;SDS011;22232;50.914;13.858;2023-04-08T03:48:16;12.02;;;6.32;;
36189;SDS011;22232;50.914;13.858;2023-04-08T03:50:43;12.05;;;6.38;;
36189;SDS011;22232;50.914;13.858;2023-04-08T03:53:10;12.43;;;5.32;;
36189;SDS011;22232;50.914;13.858;2023-04-08T03:55:38;12.15;;;5.88;;
36189;SDS011;22232;50.914;13.858;2023-04-08T03:58:06;11.88;;;5.85;;
36189;SDS011;22232;50.914;13.858;2023-04-08T04:00:34;9.88;;;5.25;;
36189;SDS011;22232;50.914;13.858;2023-04-08T04:03:02;14.65;;;5.72;;
36189;SDS011;22232;50.914;13.858;2023-04-08T04:05:29;16.52;;;6.82;;
36189;SDS011;22232;50.914;13.858;2023-04-08T04:07:57;31.73;;;8.23;;
36189;SDS011;22232;50.914;13.858;2023-04-08T04:10:24;15.00;;;6.40;;
36189;SDS011;22232;50.914;13.858;2023-04-08T04:12:52;13.38;;;5.90;;
36189;SDS011;22232;50.914;13.858;2023-04-08T04:15:19;24.65;;;7.30;;
36189;SDS011;22232;50.914;13.858;2023-04-08T04:17:47;10.25;;;5.88;;
36189;SDS011;22232;50.914;13.858;2023-04-08T04:20:16;18.88;;;6.78;;
36189;SDS011;22232;50.914;13.858;2023-04-08T04:22:44;60.33;;;8.90;;
36189;SDS011;22232;50.914;13.858;2023-04-08T04:25:12;27.10;;;7.18;;
36189;SDS011;22232;50.914;13.858;2023-04-08T04:27:40;46.45;;;8.52;;
36189;SDS011;22232;50.914;13.858;2023-04-08T04:30:07;44.22;;;7.75;;
36189;SDS011;22232;50.914;13.858;2023-04-08T04:32:35;24.30;;;7.18;;
36189;SDS011;22232;50.914;13.858;2023-04-08T04:35:03;59.15;;;9.75;;
36189;SDS011;22232;50.914;13.858;2023-04-08T04:37:31;73.55;;;10.38;;
36189;SDS011;22232;50.914;13.858;2023-04-08T04:39:58;60.40;;;9.57;;
36189;SDS011;22232;50.914;13.858;2023-04-08T04:42:26;108.57;;;12.38;;
36189;SDS011;22232;50.914;13.858;2023-04-08T04:44:53;283.75;;;25.08;;
36189;SDS011;22232;50.914;13.858;2023-04-08T04:47:21;335.80;;;27.27;;
36189;SDS011;22232;50.914;13.858;2023-04-08T04:49:49;148.88;;;15.73;;
36189;SDS011;22232;50.914;13.858;2023-04-08T04:52:17;159.70;;;14.88;;
36189;SDS011;22232;50.914;13.858;2023-04-08T04:54:44;181.30;;;16.27;;
36189;SDS011;22232;50.914;13.858;2023-04-08T04:57:12;410.50;;;33.92;;
36189;SDS011;22232;50.914;13.858;2023-04-08T04:59:39;203.23;;;20.90;;
36189;SDS011;22232;50.914;13.858;2023-04-08T05:02:07;218.95;;;19.52;;
36189;SDS011;22232;50.914;13.858;2023-04-08T05:04:35;71.68;;;9.93;;
36189;SDS011;22232;50.914;13.858;2023-04-08T05:07:02;90.47;;;10.00;;
36189;SDS011;22232;50.914;13.858;2023-04-08T05:09:30;152.85;;;14.73;;
36189;SDS011;22232;50.914;13.858;2023-04-08T05:11:57;288.05;;;22.40;;
36189;SDS011;22232;50.914;13.858;2023-04-08T05:14:27;196.85;;;17.60;;
36189;SDS011;22232;50.914;13.858;2023-04-08T05:16:55;206.25;;;19.58;;
36189;SDS011;22232;50.914;13.858;2023-04-08T05:19:23;206.50;;;19.80;;
36189;SDS011;22232;50.914;13.858;2023-04-08T05:21:51;189.75;;;18.38;;
36189;SDS011;22232;50.914;13.858;2023-04-08T05:24:18;227.90;;;20.20;;
36189;SDS011;22232;50.914;13.858;2023-04-08T05:26:46;161.82;;;14.50;;
36189;SDS011;22232;50.914;13.858;2023-04-08T05:29:18;285.02;;;23.52;;
36189;SDS011;22232;50.914;13.858;2023-04-08T05:31:47;318.73;;;28.20;;
36189;SDS011;22232;50.914;13.858;2023-04-08T05:34:15;241.70;;;21.55;;
36189;SDS011;22232;50.914;13.858;2023-04-08T05:36:49;137.70;;;13.35;;
36189;SDS011;22232;50.914;13.858;2023-04-08T05:39:18;453.50;;;37.30;;
36189;SDS011;22232;50.914;13.858;2023-04-08T05:41:45;204.43;;;19.40;;
36189;SDS011;22232;50.914;13.858;2023-04-08T05:44:13;93.55;;;12.18;;
36189;SDS011;22232;50.914;13.858;2023-04-08T05:46:41;143.85;;;15.18;;
36189;SDS011;22232;50.914;13.858;2023-04-08T05:49:08;220.65;;;19.33;;
36189;SDS011;22232;50.914;13.858;2023-04-08T05:51:36;227.02;;;20.48;;
36189;SDS011;22232;50.914;13.858;2023-04-08T05:54:04;122.47;;;13.73;;
36189;SDS011;22232;50.914;13.858;2023-04-08T05:56:31;252.98;;;23.00;;
36189;SDS011;22232;50.914;13.858;2023-04-08T05:58:59;166.57;;;14.13;;
36189;SDS011;22232;50.914;13.858;2023-04-08T06:01:27;249.23;;;21.60;;
36189;SDS011;22232;50.914;13.858;2023-04-08T06:03:54;95.50;;;12.65;;
36189;SDS011;22232;50.914;13.858;2023-04-08T06:06:23;512.38;;;40.88;;
36189;SDS011;22232;50.914;13.858;2023-04-08T06:08:51;469.10;;;39.33;;
36189;SDS011;22232;50.914;13.858;2023-04-08T06:11:19;133.10;;;17.77;;
36189;SDS011;22232;50.914;13.858;2023-04-08T06:13:46;140.65;;;16.98;;
36189;SDS011;22232;50.914;13.858;2023-04-08T06:16:15;429.40;;;38.05;;
36189;SDS011;22232;50.914;13.858;2023-04-08T06:18:46;284.23;;;29.02;;
36189;SDS011;22232;50.914;13.858;2023-04-08T06:21:15;95.00;;;15.15;;
36189;SDS011;22232;50.914;13.858;2023-04-08T06:23:43;266.25;;;24.48;;
36189;SDS011;22232;50.914;13.858;2023-04-08T06:26:10;149.18;;;18.35;;
36189;SDS011;22232;50.914;13.858;2023-04-08T06:28:38;370.48;;;32.47;;
36189;SDS011;22232;50.914;13.858;2023-04-08T06:31:05;577.45;;;51.92;;
36189;SDS011;22232;50.914;13.858;2023-04-08T06:33:33;487.52;;;43.75;;
36189;SDS011;22232;50.914;13.858;2023-04-08T06:36:04;612.78;;;51.20;;
36189;SDS011;22232;50.914;13.858;2023-04-08T06:38:33;569.40;;;47.50;;
36189;SDS011;22232;50.914;13.858;2023-04-08T06:41:02;499.58;;;41.58;;
36189;SDS011;22232;50.914;13.858;2023-04-08T06:43:30;392.05;;;35.13;;
36189;SDS011;22232;50.914;13.858;2023-04-08T06:45:59;39.92;;;13.20;;
36189;SDS011;22232;50.914;13.858;2023-04-08T06:48:26;411.27;;;36.70;;
36189;SDS011;22232;50.914;13.858;2023-04-08T06:50:57;278.92;;;27.63;;
36189;SDS011;22232;50.914;13.858;2023-04-08T06:53:26;240.45;;;28.17;;
36189;SDS011;22232;50.914;13.858;2023-04-08T06:55:56;142.63;;;24.58;;
36189;SDS011;22232;50.914;13.858;2023-04-08T06:58:24;331.30;;;32.22;;
36189;SDS011;22232;50.914;13.858;2023-04-08T07:00:55;129.35;;;20.02;;
36189;SDS011;22232;50.914;13.858;2023-04-08T07:03:23;170.15;;;23.45;;
36189;SDS011;22232;50.914;13.858;2023-04-08T07:05:51;39.65;;;14.43;;
36189;SDS011;22232;50.914;13.858;2023-04-08T07:08:18;46.10;;;15.82;;
36189;SDS011;22232;50.914;13.858;2023-04-08T07:10:46;41.47;;;16.42;;
36189;SDS011;22232;50.914;13.858;2023-04-08T07:13:14;50.78;;;15.93;;
36189;SDS011;22232;50.914;13.858;2023-04-08T07:15:42;38.80;;;15.57;;
36189;SDS011;22232;50.914;13.858;2023-04-08T07:18:09;41.47;;;16.77;;
36189;SDS011;22232;50.914;13.858;2023-04-08T07:20:38;49.60;;;17.70;;
36189;SDS011;22232;50.914;13.858;2023-04-08T07:23:05;50.15;;;18.58;;
36189;SDS011;22232;50.914;13.858;2023-04-08T07:25:33;49.45;;;18.42;;
36189;SDS011;22232;50.914;13.858;2023-04-08T07:28:03;47.75;;;18.73;;
36189;SDS011;22232;50.914;13.858;2023-04-08T07:30:31;50.05;;;19.35;;
36189;SDS011;22232;50.914;13.858;2023-04-08T07:32:58;42.58;;;17.38;;
36189;SDS011;22232;50.914;13.858;2023-04-08T07:35:27;36.08;;;16.15;;
36189;SDS011;22232;50.914;13.858;2023-04-08T07:37:55;30.80;;;15.27;;
36189;SDS011;22232;50.914;13.858;2023-04-08T07:40:23;24.88;;;12.75;;
36189;SDS011;22232;50.914;13.858;2023-04-08T07:42:51;27.45;;;13.10;;
36189;SDS011;22232;50.914;13.858;2023-04-08T07:45:19;28.98;;;14.32;;
36189;SDS011;22232;50.914;13.858;2023-04-08T07:47:46;25.05;;;12.32;;
36189;SDS011;22232;50.914;13.858;2023-04-08T07:50:14;19.88;;;11.25;;
36189;SDS011;22232;50.914;13.858;2023-04-08T07:52:42;19.20;;;11.52;;
36189;SDS011;22232;50.914;13.858;2023-04-08T07:55:09;19.90;;;11.02;;
36189;SDS011;22232;50.914;13.858;2023-04-08T07:57:37;18.67;;;10.32;;
36189;SDS011;22232;50.914;13.858;2023-04-08T08:00:05;19.17;;;10.45;;
36189;SDS011;22232;50.914;13.858;2023-04-08T08:02:39;16.88;;;9.52;;
36189;SDS011;22232;50.914;13.858;2023-04-08T08:05:06;18.20;;;10.18;;
36189;SDS011;22232;50.914;13.858;2023-04-08T08:07:34;19.15;;;10.38;;
36189;SDS011;22232;50.914;13.858;2023-04-08T08:10:02;17.45;;;10.18;;
36189;SDS011;22232;50.914;13.858;2023-04-08T08:12:30;14.25;;;8.35;;
36189;SDS011;22232;50.914;13.858;2023-04-08T08:14:57;12.85;;;8.35;;
36189;SDS011;22232;50.914;13.858;2023-04-08T08:17:25;16.02;;;9.02;;
36189;SDS011;22232;50.914;13.858;2023-04-08T08:19:56;13.45;;;8.38;;
36189;SDS011;22232;50.914;13.858;2023-04-08T08:22:23;14.32;;;8.80;;
36189;SDS011;22232;50.914;13.858;2023-04-08T08:24:57;15.68;;;9.35;;
36189;SDS011;22232;50.914;13.858;2023-04-08T08:27:25;15.98;;;9.25;;
36189;SDS011;22232;50.914;13.858;2023-04-08T08:29:53;14.68;;;9.00;;
36189;SDS011;22232;50.914;13.858;2023-04-08T08:32:20;15.38;;;8.90;;
36189;SDS011;22232;50.914;13.858;2023-04-08T08:34:48;12.45;;;8.45;;
36189;SDS011;22232;50.914;13.858;2023-04-08T08:37:15;14.98;;;9.07;;
36189;SDS011;22232;50.914;13.858;2023-04-08T08:39:43;13.75;;;8.43;;
36189;SDS011;22232;50.914;13.858;2023-04-08T08:44:48;13.48;;;8.73;;
36189;SDS011;22232;50.914;13.858;2023-04-08T08:47:16;15.75;;;9.43;;
36189;SDS011;22232;50.914;13.858;2023-04-08T08:49:44;16.40;;;10.00;;
36189;SDS011;22232;50.914;13.858;2023-04-08T08:52:16;16.40;;;9.70;;
36189;SDS011;22232;50.914;13.858;2023-04-08T08:54:44;14.70;;;9.90;;
36189;SDS011;22232;50.914;13.858;2023-04-08T08:57:16;16.23;;;10.45;;
36189;SDS011;22232;50.914;13.858;2023-04-08T08:59:45;14.95;;;9.70;;
36189;SDS011;22232;50.914;13.858;2023-04-08T09:02:23;17.17;;;10.38;;
36189;SDS011;22232;50.914;13.858;2023-04-08T09:04:56;14.85;;;9.68;;
36189;SDS011;22232;50.914;13.858;2023-04-08T09:07:29;17.58;;;10.25;;
36189;SDS011;22232;50.914;13.858;2023-04-08T09:10:01;14.23;;;9.73;;
36189;SDS011;22232;50.914;13.858;2023-04-08T09:12:29;14.00;;;8.77;;
36189;SDS011;22232;50.914;13.858;2023-04-08T09:15:15;13.75;;;9.15;;
36189;SDS011;22232;50.914;13.858;2023-04-08T09:17:43;16.23;;;9.88;;
36189;SDS011;22232;50.914;13.858;2023-04-08T09:20:11;14.52;;;8.68;;
36189;SDS011;22232;50.914;13.858;2023-04-08T09:25:29;15.40;;;9.60;;
36189;SDS011;22232;50.914;13.858;2023-04-08T09:27:59;15.68;;;9.55;;
36189;SDS011;22232;50.914;13.858;2023-04-08T09:30:28;15.20;;;9.00;;
36189;SDS011;22232;50.914;13.858;2023-04-08T09:32:58;14.23;;;9.40;;
36189;SDS011;22232;50.914;13.858;2023-04-08T09:35:27;16.25;;;9.73;;
36189;SDS011;22232;50.914;13.858;2023-04-08T09:37:55;17.55;;;9.93;;
36189;SDS011;22232;50.914;13.858;2023-04-08T09:40:22;15.45;;;9.30;;
36189;SDS011;22232;50.914;13.858;2023-04-08T09:42:53;16.50;;;9.68;;
36189;SDS011;22232;50.914;13.858;2023-04-08T09:45:22;15.65;;;9.52;;
36189;SDS011;22232;50.914;13.858;2023-04-08T09:48:03;14.45;;;9.60;;
36189;SDS011;22232;50.914;13.858;2023-04-08T09:50:42;14.13;;;8.93;;
36189;SDS011;22232;50.914;13.858;2023-04-08T09:53:18;13.25;;;8.40;;
36189;SDS011;22232;50.914;13.858;2023-04-08T09:55:49;15.43;;;8.55;;
36189;SDS011;22232;50.914;13.858;2023-04-08T09:58:24;19.08;;;10.77;;
36189;SDS011;22232;50.914;13.858;2023-04-08T10:00:55;15.05;;;8.65;;
36189;SDS011;22232;50.914;13.858;2023-04-08T10:03:38;20.17;;;10.63;;
36189;SDS011;22232;50.914;13.858;2023-04-08T10:06:12;17.85;;;9.38;;
36189;SDS011;22232;50.914;13.858;2023-04-08T10:08:41;17.90;;;10.18;;
36189;SDS011;22232;50.914;13.858;2023-04-08T10:11:10;21.10;;;11.25;;
36189;SDS011;22232;50.914;13.858;2023-04-08T10:13:38;17.52;;;9.88;;
36189;SDS011;22232;50.914;13.858;2023-04-08T10:18:48;21.83;;;11.68;;
36189;SDS011;22232;50.914;13.858;2023-04-08T10:21:31;24.05;;;12.52;;
36189;SDS011;22232;50.914;13.858;2023-04-08T10:24:00;23.73;;;13.18;;
36189;SDS011;22232;50.914;13.858;2023-04-08T10:26:33;27.45;;;14.48;;
36189;SDS011;22232;50.914;13.858;2023-04-08T10:31:45;32.22;;;15.48;;
36189;SDS011;22232;50.914;13.858;2023-04-08T10:34:21;26.80;;;15.10;;
36189;SDS011;22232;50.914;13.858;2023-04-08T10:36:54;29.10;;;15.68;;
36189;SDS011;22232;50.914;13.858;2023-04-08T10:39:24;28.60;;;15.73;;
36189;SDS011;22232;50.914;13.858;2023-04-08T10:41:53;27.67;;;15.63;;
36189;SDS011;22232;50.914;13.858;2023-04-08T10:44:21;29.70;;;16.23;;
36189;SDS011;22232;50.914;13.858;2023-04-08T10:46:52;28.15;;;15.32;;
36189;SDS011;22232;50.914;13.858;2023-04-08T10:49:21;30.92;;;16.55;;
36189;SDS011;22232;50.914;13.858;2023-04-08T10:51:48;32.80;;;16.88;;
36189;SDS011;22232;50.914;13.858;2023-04-08T10:54:16;28.70;;;15.20;;
36189;SDS011;22232;50.914;13.858;2023-04-08T10:56:45;29.38;;;16.02;;
36189;SDS011;22232;50.914;13.858;2023-04-08T10:59:15;30.88;;;15.65;;
36189;SDS011;22232;50.914;13.858;2023-04-08T11:01:44;29.67;;;14.68;;
36189;SDS011;22232;50.914;13.858;2023-04-08T11:04:13;26.70;;;14.02;;
36189;SDS011;22232;50.914;13.858;2023-04-08T11:06:43;25.80;;;13.80;;
36189;SDS011;22232;50.914;13.858;2023-04-08T11:09:13;24.52;;;13.18;;
36189;SDS011;22232;50.914;13.858;2023-04-08T11:11:42;23.95;;;13.77;;
36189;SDS011;22232;50.914;13.858;2023-04-08T11:14:11;20.70;;;11.93;;
36189;SDS011;22232;50.914;13.858;2023-04-08T11:16:40;24.38;;;13.18;;
36189;SDS011;22232;50.914;13.858;2023-04-08T11:19:08;27.52;;;13.98;;
36189;SDS011;22232;50.914;13.858;2023-04-08T11:21:36;24.98;;;13.63;;
36189;SDS011;22232;50.914;13.858;2023-04-08T11:24:11;23.92;;;12.95;;
36189;SDS011;22232;50.914;13.858;2023-04-08T11:26:39;29.70;;;14.63;;
36189;SDS011;22232;50.914;13.858;2023-04-08T11:29:11;26.38;;;13.52;;
36189;SDS011;22232;50.914;13.858;2023-04-08T11:31:41;24.92;;;13.90;;
36189;SDS011;22232;50.914;13.858;2023-04-08T11:34:10;24.88;;;13.48;;
36189;SDS011;22232;50.914;13.858;2023-04-08T11:36:40;26.23;;;13.85;;
36189;SDS011;22232;50.914;13.858;2023-04-08T11:39:08;28.33;;;13.98;;
36189;SDS011;22232;50.914;13.858;2023-04-08T11:41:38;26.17;;;13.48;;
36189;SDS011;22232;50.914;13.858;2023-04-08T11:44:09;25.52;;;14.18;;
36189;SDS011;22232;50.914;13.858;2023-04-08T11:46:36;27.95;;;15.27;;
36189;SDS011;22232;50.914;13.858;2023-04-08T11:49:06;27.20;;;14.23;;
36189;SDS011;22232;50.914;13.858;2023-04-08T11:51:36;24.77;;;13.20;;
36189;SDS011;22232;50.914;13.858;2023-04-08T11:54:27;25.20;;;13.82;;
36189;SDS011;22232;50.914;13.858;2023-04-08T11:56:58;25.65;;;13.68;;
36189;SDS011;22232;50.914;13.858;2023-04-08T11:59:26;32.45;;;16.70;;
36189;SDS011;22232;50.914;13.858;2023-04-08T12:01:55;31.08;;;16.00;;
36189;SDS011;22232;50.914;13.858;2023-04-08T12:04:23;31.27;;;16.50;;
36189;SDS011;22232;50.914;13.858;2023-04-08T12:06:51;33.55;;;17.33;;
36189;SDS011;22232;50.914;13.858;2023-04-08T12:09:19;33.10;;;17.35;;
36189;SDS011;22232;50.914;13.858;2023-04-08T12:11:47;42.47;;;20.33;;
36189;SDS011;22232;50.914;13.858;2023-04-08T12:14:14;40.05;;;20.10;;
36189;SDS011;22232;50.914;13.858;2023-04-08T12:16:42;37.40;;;18.98;;
36189;SDS011;22232;50.914;13.858;2023-04-08T12:19:10;34.85;;;18.25;;
36189;SDS011;22232;50.914;13.858;2023-04-08T12:21:37;39.30;;;18.83;;
36189;SDS011;22232;50.914;13.858;2023-04-08T12:24:05;36.08;;;19.38;;
36189;SDS011;22232;50.914;13.858;2023-04-08T12:26:33;44.80;;;21.38;;
36189;SDS011;22232;50.914;13.858;2023-04-08T12:29:00;41.28;;;21.17;;
36189;SDS011;22232;50.914;13.858;2023-04-08T12:31:28;42.67;;;20.90;;
36189;SDS011;22232;50.914;13.858;2023-04-08T12:33:56;46.95;;;22.02;;
36189;SDS011;22232;50.914;13.858;2023-04-08T12:36:23;42.25;;;21.25;;
36189;SDS011;22232;50.914;13.858;2023-04-08T12:38:51;42.28;;;20.70;;
36189;SDS011;22232;50.914;13.858;2023-04-08T12:41:19;39.58;;;19.08;;
36189;SDS011;22232;50.914;13.858;2023-04-08T12:43:46;46.05;;;21.42;;
36189;SDS011;22232;50.914;13.858;2023-04-08T12:46:14;44.00;;;20.92;;
36189;SDS011;22232;50.914;13.858;2023-04-08T12:48:42;46.38;;;22.27;;
36189;SDS011;22232;50.914;13.858;2023-04-08T12:51:13;45.72;;;21.92;;
36189;SDS011;22232;50.914;13.858;2023-04-08T12:53:40;43.03;;;20.77;;
36189;SDS011;22232;50.914;13.858;2023-04-08T12:56:08;41.47;;;20.42;;
36189;SDS011;22232;50.914;13.858;2023-04-08T12:58:36;47.80;;;23.23;;
36189;SDS011;22232;50.914;13.858;2023-04-08T13:01:03;40.33;;;20.80;;
36189;SDS011;22232;50.914;13.858;2023-04-08T13:03:32;45.67;;;22.30;;
36189;SDS011;22232;50.914;13.858;2023-04-08T13:06:01;41.47;;;19.85;;
36189;SDS011;22232;50.914;13.858;2023-04-08T13:08:28;42.28;;;20.77;;
36189;SDS011;22232;50.914;13.858;2023-04-08T13:10:56;36.50;;;18.77;;
36189;SDS011;22232;50.914;13.858;2023-04-08T13:13:23;39.10;;;20.20;;
36189;SDS011;22232;50.914;13.858;2023-04-08T13:15:51;37.10;;;19.63;;
36189;SDS011;22232;50.914;13.858;2023-04-08T13:18:18;34.83;;;18.05;;
36189;SDS011;22232;50.914;13.858;2023-04-08T13:20:46;30.80;;;17.00;;
36189;SDS011;22232;50.914;13.858;2023-04-08T13:23:14;34.72;;;18.25;;
36189;SDS011;22232;50.914;13.858;2023-04-08T13:25:43;34.33;;;17.83;;
36189;SDS011;22232;50.914;13.858;2023-04-08T13:28:14;35.95;;;19.05;;
36189;SDS011;22232;50.914;13.858;2023-04-08T13:30:42;33.58;;;18.70;;
36189;SDS011;22232;50.914;13.858;2023-04-08T13:33:09;34.83;;;18.17;;
36189;SDS011;22232;50.914;13.858;2023-04-08T13:35:37;32.28;;;18.15;;
36189;SDS011;22232;50.914;13.858;2023-04-08T13:38:04;35.42;;;19.58;;
36189;SDS011;22232;50.914;13.858;2023-04-08T13:40:32;37.50;;;20.50;;
36189;SDS011;22232;50.914;13.858;2023-04-08T13:42:59;35.58;;;18.30;;
36189;SDS011;22232;50.914;13.858;2023-04-08T13:45:27;34.15;;;17.65;;
36189;SDS011;22232;50.914;13.858;2023-04-08T13:47:55;34.28;;;18.02;;
36189;SDS011;22232;50.914;13.858;2023-04-08T13:50:23;34.20;;;17.98;;
36189;SDS011;22232;50.914;13.858;2023-04-08T13:52:50;33.42;;;18.60;;
36189;SDS011;22232;50.914;13.858;2023-04-08T13:55:18;34.33;;;18.08;;
36189;SDS011;22232;50.914;13.858;2023-04-08T13:57:45;34.80;;;19.48;;
36189;SDS011;22232;50.914;13.858;2023-04-08T14:00:13;41.90;;;20.63;;
36189;SDS011;22232;50.914;13.858;2023-04-08T14:02:40;44.78;;;22.42;;
36189;SDS011;22232;50.914;13.858;2023-04-08T14:05:08;42.45;;;22.10;;
36189;SDS011;22232;50.914;13.858;2023-04-08T14:07:36;35.38;;;19.55;;
36189;SDS011;22232;50.914;13.858;2023-04-08T14:10:03;33.05;;;18.17;;
36189;SDS011;22232;50.914;13.858;2023-04-08T14:12:31;34.63;;;19.00;;
36189;SDS011;22232;50.914;13.858;2023-04-08T14:14:59;32.75;;;17.30;;
36189;SDS011;22232;50.914;13.858;2023-04-08T14:17:26;32.42;;;17.92;;
36189;SDS011;22232;50.914;13.858;2023-04-08T14:19:54;35.33;;;19.27;;
36189;SDS011;22232;50.914;13.858;2023-04-08T14:22:22;40.90;;;21.17;;
36189;SDS011;22232;50.914;13.858;2023-04-08T14:24:49;41.88;;;21.95;;
36189;SDS011;22232;50.914;13.858;2023-04-08T14:27:17;38.90;;;21.15;;
36189;SDS011;22232;50.914;13.858;2023-04-08T14:29:44;34.65;;;19.55;;
36189;SDS011;22232;50.914;13.858;2023-04-08T14:32:12;38.53;;;20.48;;
36189;SDS011;22232;50.914;13.858;2023-04-08T14:34:40;38.72;;;21.70;;